Terminal Aerodrome Forecast
Issued by NWS

Home | Current Version | Previous Version | Text Only | Print | Product List | Glossary On
Versions: 1 2 3 4 5 6 7 8 9 10 11 12 13 14 15 16 17
000
FTUS41 KBOX 251128
TAFHYA
TAF
KHYA 251128Z 2512/2612 09011KT 6SM -RA BR OVC035
     FM251400 11013G29KT 3SM -RA BR OVC015
     FM251600 11013G29KT 2SM -RA BR OVC008
     FM252300 12011KT 3SM BR OVC003
     FM260200 22009KT 3SM BR OVC003
     FM260300 27010KT 3SM BR OVC008
     FM260600 31010KT P6SM BKN100=

USA.gov is the U.S. government's official web portal to all federal, state and local government web resources and services.